sensor_id;sensor_type;location;lat;lon;timestamp;temperature;humidity
47482;DHT22;33219;47.410;9.730;2022-10-12T00:00:10;13.30;99.90
47482;DHT22;33219;47.410;9.730;2022-10-12T00:02:38;13.30;99.90
47482;DHT22;33219;47.410;9.730;2022-10-12T00:05:06;13.30;99.90
47482;DHT22;33219;47.410;9.730;2022-10-12T00:07:34;13.30;99.90
47482;DHT22;33219;47.410;9.730;2022-10-12T00:10:02;13.30;99.90
47482;DHT22;33219;47.410;9.730;2022-10-12T00:12:30;13.40;99.90
47482;DHT22;33219;47.410;9.730;2022-10-12T00:14:57;13.30;99.90
47482;DHT22;33219;47.410;9.730;2022-10-12T00:17:25;13.40;99.90
47482;DHT22;33219;47.410;9.730;2022-10-12T00:19:53;13.30;99.90
47482;DHT22;33219;47.410;9.730;2022-10-12T00:22:20;13.30;99.90
47482;DHT22;33219;47.410;9.730;2022-10-12T00:24:48;13.30;99.90
47482;DHT22;33219;47.410;9.730;2022-10-12T00:27:15;13.30;99.90
47482;DHT22;33219;47.410;9.730;2022-10-12T00:29:43;13.30;99.90
47482;DHT22;33219;47.410;9.730;2022-10-12T00:32:10;13.20;99.90
47482;DHT22;33219;47.410;9.730;2022-10-12T00:34:38;13.10;99.90
47482;DHT22;33219;47.410;9.730;2022-10-12T00:37:06;13.10;99.90
47482;DHT22;33219;47.410;9.730;2022-10-12T00:39:33;13.10;99.90
47482;DHT22;33219;47.410;9.730;2022-10-12T00:42:01;13.00;99.90
47482;DHT22;33219;47.410;9.730;2022-10-12T00:44:41;13.00;99.90
47482;DHT22;33219;47.410;9.730;2022-10-12T00:47:15;13.00;99.90
47482;DHT22;33219;47.410;9.730;2022-10-12T00:49:43;13.00;99.90
47482;DHT22;33219;47.410;9.730;2022-10-12T00:52:13;12.90;99.90
47482;DHT22;33219;47.410;9.730;2022-10-12T00:54:46;12.90;99.90
47482;DHT22;33219;47.410;9.730;2022-10-12T00:57:14;12.80;99.90
47482;DHT22;33219;47.410;9.730;2022-10-12T00:59:52;12.80;99.90
47482;DHT22;33219;47.410;9.730;2022-10-12T01:02:16;12.80;99.90
47482;DHT22;33219;47.410;9.730;2022-10-12T01:04:45;12.90;99.90
47482;DHT22;33219;47.410;9.730;2022-10-12T01:07:13;12.80;99.90
47482;DHT22;33219;47.410;9.730;2022-10-12T01:09:41;12.80;99.90
47482;DHT22;33219;47.410;9.730;2022-10-12T01:12:09;12.90;99.90
47482;DHT22;33219;47.410;9.730;2022-10-12T01:14:37;13.00;99.90
47482;DHT22;33219;47.410;9.730;2022-10-12T01:23:28;13.00;99.90
47482;DHT22;33219;47.410;9.730;2022-10-12T01:26:15;13.10;99.90
47482;DHT22;33219;47.410;9.730;2022-10-12T01:29:12;13.10;99.90
47482;DHT22;33219;47.410;9.730;2022-10-12T01:34:32;13.10;99.90
47482;DHT22;33219;47.410;9.730;2022-10-12T01:37:26;13.10;99.90
47482;DHT22;33219;47.410;9.730;2022-10-12T01:39:55;13.10;99.90
47482;DHT22;33219;47.410;9.730;2022-10-12T01:42:30;13.20;99.90
47482;DHT22;33219;47.410;9.730;2022-10-12T01:45:06;13.10;99.90
47482;DHT22;33219;47.410;9.730;2022-10-12T01:47:35;13.10;99.90
47482;DHT22;33219;47.410;9.730;2022-10-12T01:50:07;13.20;99.90
47482;DHT22;33219;47.410;9.730;2022-10-12T01:52:55;13.10;99.90
47482;DHT22;33219;47.410;9.730;2022-10-12T02:01:19;13.20;99.90
47482;DHT22;33219;47.410;9.730;2022-10-12T02:04:00;13.20;99.90
47482;DHT22;33219;47.410;9.730;2022-10-12T02:06:35;13.20;99.90
47482;DHT22;33219;47.410;9.730;2022-10-12T02:09:08;13.20;99.90
47482;DHT22;33219;47.410;9.730;2022-10-12T02:11:37;13.20;99.90
47482;DHT22;33219;47.410;9.730;2022-10-12T02:14:12;13.20;99.90
47482;DHT22;33219;47.410;9.730;2022-10-12T02:16:46;13.30;99.90
47482;DHT22;33219;47.410;9.730;2022-10-12T02:19:12;13.20;99.90
47482;DHT22;33219;47.410;9.730;2022-10-12T02:21:40;13.20;99.90
47482;DHT22;33219;47.410;9.730;2022-10-12T02:24:09;13.10;99.90
47482;DHT22;33219;47.410;9.730;2022-10-12T02:26:41;13.10;99.90
47482;DHT22;33219;47.410;9.730;2022-10-12T02:29:16;13.10;99.90
47482;DHT22;33219;47.410;9.730;2022-10-12T02:32:07;13.00;99.90
47482;DHT22;33219;47.410;9.730;2022-10-12T02:34:37;13.00;99.90
47482;DHT22;33219;47.410;9.730;2022-10-12T02:39:50;12.90;99.90
47482;DHT22;33219;47.410;9.730;2022-10-12T02:42:25;12.90;99.90
47482;DHT22;33219;47.410;9.730;2022-10-12T02:44:55;12.90;99.90
47482;DHT22;33219;47.410;9.730;2022-10-12T02:47:25;12.90;99.90
47482;DHT22;33219;47.410;9.730;2022-10-12T02:49:55;12.90;99.90
47482;DHT22;33219;47.410;9.730;2022-10-12T02:52:23;12.90;99.90
47482;DHT22;33219;47.410;9.730;2022-10-12T02:54:51;12.90;99.90
47482;DHT22;33219;47.410;9.730;2022-10-12T02:57:19;13.00;99.90
47482;DHT22;33219;47.410;9.730;2022-10-12T02:59:47;13.00;99.90
47482;DHT22;33219;47.410;9.730;2022-10-12T03:02:14;13.00;99.90
47482;DHT22;33219;47.410;9.730;2022-10-12T03:04:42;13.00;99.90
47482;DHT22;33219;47.410;9.730;2022-10-12T03:07:10;12.90;99.90
47482;DHT22;33219;47.410;9.730;2022-10-12T03:09:37;12.90;99.90
47482;DHT22;33219;47.410;9.730;2022-10-12T03:12:05;13.00;99.90
47482;DHT22;33219;47.410;9.730;2022-10-12T03:14:33;12.90;99.90
47482;DHT22;33219;47.410;9.730;2022-10-12T03:17:03;12.90;99.90
47482;DHT22;33219;47.410;9.730;2022-10-12T03:19:30;12.90;99.90
47482;DHT22;33219;47.410;9.730;2022-10-12T03:21:58;12.90;99.90
47482;DHT22;33219;47.410;9.730;2022-10-12T03:24:26;12.90;99.90
47482;DHT22;33219;47.410;9.730;2022-10-12T03:26:53;12.90;99.90
47482;DHT22;33219;47.410;9.730;2022-10-12T03:29:21;13.00;99.90
47482;DHT22;33219;47.410;9.730;2022-10-12T03:31:49;12.90;99.90
47482;DHT22;33219;47.410;9.730;2022-10-12T03:34:16;12.90;99.90
47482;DHT22;33219;47.410;9.730;2022-10-12T03:36:44;12.90;99.90
47482;DHT22;33219;47.410;9.730;2022-10-12T03:39:12;12.90;99.90
47482;DHT22;33219;47.410;9.730;2022-10-12T03:41:39;12.90;99.90
47482;DHT22;33219;47.410;9.730;2022-10-12T03:44:07;12.90;99.90
47482;DHT22;33219;47.410;9.730;2022-10-12T03:46:34;12.90;99.90
47482;DHT22;33219;47.410;9.730;2022-10-12T03:49:02;12.90;99.90
47482;DHT22;33219;47.410;9.730;2022-10-12T03:51:30;12.90;99.90
47482;DHT22;33219;47.410;9.730;2022-10-12T03:53:57;12.90;99.90
47482;DHT22;33219;47.410;9.730;2022-10-12T03:56:25;12.90;99.90
47482;DHT22;33219;47.410;9.730;2022-10-12T03:58:52;12.90;99.90
47482;DHT22;33219;47.410;9.730;2022-10-12T04:01:20;12.90;99.90
47482;DHT22;33219;47.410;9.730;2022-10-12T04:03:48;12.90;99.90
47482;DHT22;33219;47.410;9.730;2022-10-12T04:06:15;12.90;99.90
47482;DHT22;33219;47.410;9.730;2022-10-12T04:08:43;12.90;99.90
47482;DHT22;33219;47.410;9.730;2022-10-12T04:11:10;12.90;99.90
47482;DHT22;33219;47.410;9.730;2022-10-12T04:13:38;12.90;99.90
47482;DHT22;33219;47.410;9.730;2022-10-12T04:16:07;13.00;99.90
47482;DHT22;33219;47.410;9.730;2022-10-12T04:18:35;12.90;99.90
47482;DHT22;33219;47.410;9.730;2022-10-12T04:21:11;12.90;99.90
47482;DHT22;33219;47.410;9.730;2022-10-12T04:23:34;13.00;99.90
47482;DHT22;33219;47.410;9.730;2022-10-12T04:26:01;13.00;99.90
47482;DHT22;33219;47.410;9.730;2022-10-12T04:28:29;13.00;99.90
47482;DHT22;33219;47.410;9.730;2022-10-12T04:30:56;13.00;99.90
47482;DHT22;33219;47.410;9.730;2022-10-12T04:33:24;13.00;99.90
47482;DHT22;33219;47.410;9.730;2022-10-12T04:35:52;13.00;99.90
47482;DHT22;33219;47.410;9.730;2022-10-12T04:38:19;13.00;99.90
47482;DHT22;33219;47.410;9.730;2022-10-12T04:40:47;13.00;99.90
47482;DHT22;33219;47.410;9.730;2022-10-12T04:43:16;13.00;99.90
47482;DHT22;33219;47.410;9.730;2022-10-12T04:45:43;13.00;99.90
47482;DHT22;33219;47.410;9.730;2022-10-12T04:48:11;13.00;99.90
47482;DHT22;33219;47.410;9.730;2022-10-12T04:50:39;13.00;99.90
47482;DHT22;33219;47.410;9.730;2022-10-12T04:53:06;13.10;99.90
47482;DHT22;33219;47.410;9.730;2022-10-12T04:55:36;13.10;99.90
47482;DHT22;33219;47.410;9.730;2022-10-12T04:58:03;13.00;99.90
47482;DHT22;33219;47.410;9.730;2022-10-12T05:00:31;13.00;99.90
47482;DHT22;33219;47.410;9.730;2022-10-12T05:02:58;12.90;99.90
47482;DHT22;33219;47.410;9.730;2022-10-12T05:05:26;12.90;99.90
47482;DHT22;33219;47.410;9.730;2022-10-12T05:07:54;12.90;99.90
47482;DHT22;33219;47.410;9.730;2022-10-12T05:10:21;12.90;99.90
47482;DHT22;33219;47.410;9.730;2022-10-12T05:12:49;13.00;99.90
47482;DHT22;33219;47.410;9.730;2022-10-12T05:15:17;13.00;99.90
47482;DHT22;33219;47.410;9.730;2022-10-12T05:17:44;13.00;99.90
47482;DHT22;33219;47.410;9.730;2022-10-12T05:20:12;13.00;99.90
47482;DHT22;33219;47.410;9.730;2022-10-12T05:22:41;13.00;99.90
47482;DHT22;33219;47.410;9.730;2022-10-12T05:25:13;13.00;99.90
47482;DHT22;33219;47.410;9.730;2022-10-12T05:27:44;13.00;99.90
47482;DHT22;33219;47.410;9.730;2022-10-12T05:30:18;13.00;99.90
47482;DHT22;33219;47.410;9.730;2022-10-12T05:33:04;12.90;99.90
47482;DHT22;33219;47.410;9.730;2022-10-12T05:35:50;13.00;99.90
47482;DHT22;33219;47.410;9.730;2022-10-12T05:42:15;13.00;99.90
47482;DHT22;33219;47.410;9.730;2022-10-12T06:07:33;12.90;99.90
47482;DHT22;33219;47.410;9.730;2022-10-12T06:13:47;13.00;99.90
47482;DHT22;33219;47.410;9.730;2022-10-12T06:19:35;13.10;99.90
47482;DHT22;33219;47.410;9.730;2022-10-12T06:28:45;13.00;99.90
47482;DHT22;33219;47.410;9.730;2022-10-12T06:40:09;13.10;99.90
47482;DHT22;33219;47.410;9.730;2022-10-12T06:42:49;13.10;99.90
47482;DHT22;33219;47.410;9.730;2022-10-12T06:48:51;13.10;99.90
47482;DHT22;33219;47.410;9.730;2022-10-12T06:51:38;13.10;99.90
47482;DHT22;33219;47.410;9.730;2022-10-12T06:54:16;13.20;99.90
47482;DHT22;33219;47.410;9.730;2022-10-12T06:56:52;13.30;99.90
47482;DHT22;33219;47.410;9.730;2022-10-12T06:59:32;13.40;99.90
47482;DHT22;33219;47.410;9.730;2022-10-12T07:02:16;13.50;99.90
47482;DHT22;33219;47.410;9.730;2022-10-12T07:05:08;13.60;99.90
47482;DHT22;33219;47.410;9.730;2022-10-12T07:07:44;13.60;99.90
47482;DHT22;33219;47.410;9.730;2022-10-12T07:13:51;13.70;99.90
47482;DHT22;33219;47.410;9.730;2022-10-12T07:22:55;14.00;99.90
47482;DHT22;33219;47.410;9.730;2022-10-12T07:25:30;14.00;99.90
47482;DHT22;33219;47.410;9.730;2022-10-12T07:28:12;14.10;99.90
47482;DHT22;33219;47.410;9.730;2022-10-12T07:30:52;14.20;99.90
47482;DHT22;33219;47.410;9.730;2022-10-12T07:33:26;14.30;99.90
47482;DHT22;33219;47.410;9.730;2022-10-12T07:36:17;14.30;99.90
47482;DHT22;33219;47.410;9.730;2022-10-12T07:38:51;14.30;99.90
47482;DHT22;33219;47.410;9.730;2022-10-12T07:58:09;14.60;99.90
47482;DHT22;33219;47.410;9.730;2022-10-12T08:24:06;15.40;99.90
47482;DHT22;33219;47.410;9.730;2022-10-12T08:27:16;15.70;99.90
47482;DHT22;33219;47.410;9.730;2022-10-12T08:30:16;15.90;99.90
47482;DHT22;33219;47.410;9.730;2022-10-12T08:33:28;16.00;99.90
47482;DHT22;33219;47.410;9.730;2022-10-12T08:39:33;16.20;99.90
47482;DHT22;33219;47.410;9.730;2022-10-12T08:48:27;16.80;99.90
47482;DHT22;33219;47.410;9.730;2022-10-12T08:55:38;16.90;99.90
47482;DHT22;33219;47.410;9.730;2022-10-12T08:58:19;17.30;99.90
47482;DHT22;33219;47.410;9.730;2022-10-12T09:00:57;17.50;99.90
47482;DHT22;33219;47.410;9.730;2022-10-12T09:06:57;17.80;99.90
47482;DHT22;33219;47.410;9.730;2022-10-12T09:12:34;17.50;99.90
47482;DHT22;33219;47.410;9.730;2022-10-12T09:15:09;17.20;99.90
47482;DHT22;33219;47.410;9.730;2022-10-12T09:18:00;17.30;99.90
47482;DHT22;33219;47.410;9.730;2022-10-12T09:20:44;17.70;99.90
47482;DHT22;33219;47.410;9.730;2022-10-12T09:23:33;17.80;99.90
47482;DHT22;33219;47.410;9.730;2022-10-12T09:26:20;17.60;99.90
47482;DHT22;33219;47.410;9.730;2022-10-12T09:29:20;17.70;99.90
47482;DHT22;33219;47.410;9.730;2022-10-12T09:35:00;17.70;99.90
47482;DHT22;33219;47.410;9.730;2022-10-12T09:37:51;17.60;99.90
47482;DHT22;33219;47.410;9.730;2022-10-12T09:40:30;17.60;99.90
47482;DHT22;33219;47.410;9.730;2022-10-12T09:43:21;17.80;99.90
47482;DHT22;33219;47.410;9.730;2022-10-12T09:45:55;17.40;99.90
47482;DHT22;33219;47.410;9.730;2022-10-12T10:07:33;17.00;99.90
47482;DHT22;33219;47.410;9.730;2022-10-12T10:16:24;17.10;99.90
47482;DHT22;33219;47.410;9.730;2022-10-12T10:19:22;17.20;99.90
47482;DHT22;33219;47.410;9.730;2022-10-12T10:22:03;17.30;99.90
47482;DHT22;33219;47.410;9.730;2022-10-12T10:28:19;17.10;99.90
47482;DHT22;33219;47.410;9.730;2022-10-12T10:31:02;17.10;99.90
47482;DHT22;33219;47.410;9.730;2022-10-12T10:37:32;17.20;99.90
47482;DHT22;33219;47.410;9.730;2022-10-12T10:40:13;17.10;99.90
47482;DHT22;33219;47.410;9.730;2022-10-12T10:42:42;17.10;99.90
47482;DHT22;33219;47.410;9.730;2022-10-12T10:45:19;17.20;99.90
47482;DHT22;33219;47.410;9.730;2022-10-12T10:47:46;17.20;99.90
47482;DHT22;33219;47.410;9.730;2022-10-12T10:50:37;17.30;99.90
47482;DHT22;33219;47.410;9.730;2022-10-12T10:53:20;17.30;99.90
47482;DHT22;33219;47.410;9.730;2022-10-12T10:56:04;17.20;99.90
47482;DHT22;33219;47.410;9.730;2022-10-12T10:58:50;17.00;99.90
47482;DHT22;33219;47.410;9.730;2022-10-12T11:04:18;17.40;99.90
47482;DHT22;33219;47.410;9.730;2022-10-12T11:07:13;17.40;99.90
47482;DHT22;33219;47.410;9.730;2022-10-12T11:12:20;17.50;99.90
47482;DHT22;33219;47.410;9.730;2022-10-12T11:15:03;17.70;99.90
47482;DHT22;33219;47.410;9.730;2022-10-12T11:17:36;17.70;99.90
47482;DHT22;33219;47.410;9.730;2022-10-12T11:23:24;17.40;99.90
47482;DHT22;33219;47.410;9.730;2022-10-12T11:26:29;17.60;99.90
47482;DHT22;33219;47.410;9.730;2022-10-12T11:29:20;17.70;99.90
47482;DHT22;33219;47.410;9.730;2022-10-12T11:41:24;18.40;99.90
47482;DHT22;33219;47.410;9.730;2022-10-12T11:44:19;18.50;99.90
47482;DHT22;33219;47.410;9.730;2022-10-12T11:46:49;18.70;99.90
47482;DHT22;33219;47.410;9.730;2022-10-12T11:49:26;18.50;99.90
47482;DHT22;33219;47.410;9.730;2022-10-12T11:52:07;18.30;99.90
47482;DHT22;33219;47.410;9.730;2022-10-12T11:57:17;17.80;99.90
47482;DHT22;33219;47.410;9.730;2022-10-12T12:02:40;18.10;99.90
47482;DHT22;33219;47.410;9.730;2022-10-12T12:05:12;18.10;99.90
47482;DHT22;33219;47.410;9.730;2022-10-12T12:07:52;18.20;99.90
47482;DHT22;33219;47.410;9.730;2022-10-12T12:13:07;18.20;99.90
47482;DHT22;33219;47.410;9.730;2022-10-12T12:15:38;18.10;99.90
47482;DHT22;33219;47.410;9.730;2022-10-12T12:28:46;18.50;99.90
47482;DHT22;33219;47.410;9.730;2022-10-12T12:31:26;18.40;99.90
47482;DHT22;33219;47.410;9.730;2022-10-12T12:34:16;18.20;99.90
47482;DHT22;33219;47.410;9.730;2022-10-12T12:36:50;18.10;99.90
47482;DHT22;33219;47.410;9.730;2022-10-12T12:39:32;18.00;99.90
47482;DHT22;33219;47.410;9.730;2022-10-12T12:42:09;18.00;99.90
47482;DHT22;33219;47.410;9.730;2022-10-12T12:44:43;17.90;99.90
47482;DHT22;33219;47.410;9.730;2022-10-12T12:50:25;18.00;99.90
47482;DHT22;33219;47.410;9.730;2022-10-12T12:52:42;17.90;99.90
47482;DHT22;33219;47.410;9.730;2022-10-12T12:55:44;17.70;99.90
47482;DHT22;33219;47.410;9.730;2022-10-12T13:07:26;17.50;99.90
47482;DHT22;33219;47.410;9.730;2022-10-12T13:18:39;17.50;99.90
47482;DHT22;33219;47.410;9.730;2022-10-12T13:21:14;17.60;99.90
47482;DHT22;33219;47.410;9.730;2022-10-12T13:23:42;17.40;99.90
47482;DHT22;33219;47.410;9.730;2022-10-12T13:26:16;17.50;99.90
47482;DHT22;33219;47.410;9.730;2022-10-12T13:28:44;17.40;99.90
47482;DHT22;33219;47.410;9.730;2022-10-12T13:34:16;17.50;99.90
47482;DHT22;33219;47.410;9.730;2022-10-12T13:36:48;17.50;99.90
47482;DHT22;33219;47.410;9.730;2022-10-12T13:39:19;17.50;99.90
47482;DHT22;33219;47.410;9.730;2022-10-12T13:41:49;17.60;99.90
47482;DHT22;33219;47.410;9.730;2022-10-12T13:44:24;17.60;99.90
47482;DHT22;33219;47.410;9.730;2022-10-12T13:46:56;17.50;99.90
47482;DHT22;33219;47.410;9.730;2022-10-12T13:49:40;17.60;99.90
47482;DHT22;33219;47.410;9.730;2022-10-12T13:54:43;17.60;99.90
47482;DHT22;33219;47.410;9.730;2022-10-12T13:57:41;17.30;99.90
47482;DHT22;33219;47.410;9.730;2022-10-12T14:00:20;17.10;99.90
47482;DHT22;33219;47.410;9.730;2022-10-12T14:03:03;17.20;99.90
47482;DHT22;33219;47.410;9.730;2022-10-12T14:05:29;17.30;99.90
47482;DHT22;33219;47.410;9.730;2022-10-12T14:08:04;17.20;99.90
47482;DHT22;33219;47.410;9.730;2022-10-12T14:10:33;17.30;99.90
47482;DHT22;33219;47.410;9.730;2022-10-12T14:13:01;17.30;99.90
47482;DHT22;33219;47.410;9.730;2022-10-12T14:15:37;17.30;99.90
47482;DHT22;33219;47.410;9.730;2022-10-12T14:18:01;17.20;99.90
47482;DHT22;33219;47.410;9.730;2022-10-12T14:20:33;17.20;99.90
47482;DHT22;33219;47.410;9.730;2022-10-12T14:23:13;17.20;99.90
47482;DHT22;33219;47.410;9.730;2022-10-12T14:25:53;17.10;99.90
47482;DHT22;33219;47.410;9.730;2022-10-12T14:28:27;16.80;99.90
47482;DHT22;33219;47.410;9.730;2022-10-12T14:30:55;16.60;99.90
47482;DHT22;33219;47.410;9.730;2022-10-12T14:33:24;16.60;99.90
47482;DHT22;33219;47.410;9.730;2022-10-12T14:38:41;16.60;99.90
47482;DHT22;33219;47.410;9.730;2022-10-12T14:44:12;16.60;99.90
47482;DHT22;33219;47.410;9.730;2022-10-12T14:46:53;16.60;99.90
47482;DHT22;33219;47.410;9.730;2022-10-12T14:49:26;16.40;99.90
47482;DHT22;33219;47.410;9.730;2022-10-12T14:51:54;16.50;99.90
47482;DHT22;33219;47.410;9.730;2022-10-12T14:54:22;16.30;99.90
47482;DHT22;33219;47.410;9.730;2022-10-12T14:56:50;16.30;99.90
47482;DHT22;33219;47.410;9.730;2022-10-12T14:59:18;16.30;99.90
47482;DHT22;33219;47.410;9.730;2022-10-12T15:01:45;16.20;99.90
47482;DHT22;33219;47.410;9.730;2022-10-12T15:04:13;16.30;99.90
47482;DHT22;33219;47.410;9.730;2022-10-12T15:06:41;16.30;99.90
47482;DHT22;33219;47.410;9.730;2022-10-12T15:09:08;16.20;99.90
47482;DHT22;33219;47.410;9.730;2022-10-12T15:11:36;16.10;99.90
47482;DHT22;33219;47.410;9.730;2022-10-12T15:14:04;16.00;99.90
47482;DHT22;33219;47.410;9.730;2022-10-12T15:16:32;15.90;99.90
47482;DHT22;33219;47.410;9.730;2022-10-12T15:18:59;15.80;99.90
47482;DHT22;33219;47.410;9.730;2022-10-12T15:21:27;15.90;99.90
47482;DHT22;33219;47.410;9.730;2022-10-12T15:23:55;15.90;99.90
47482;DHT22;33219;47.410;9.730;2022-10-12T15:26:22;15.90;99.90
47482;DHT22;33219;47.410;9.730;2022-10-12T15:28:50;15.80;99.90
47482;DHT22;33219;47.410;9.730;2022-10-12T15:31:18;15.90;99.90
47482;DHT22;33219;47.410;9.730;2022-10-12T15:33:45;15.90;99.90
47482;DHT22;33219;47.410;9.730;2022-10-12T15:36:13;15.80;99.90
47482;DHT22;33219;47.410;9.730;2022-10-12T15:38:40;15.80;99.90
47482;DHT22;33219;47.410;9.730;2022-10-12T15:41:16;15.80;99.90
47482;DHT22;33219;47.410;9.730;2022-10-12T15:43:44;15.80;99.90
47482;DHT22;33219;47.410;9.730;2022-10-12T15:46:12;15.90;99.90
47482;DHT22;33219;47.410;9.730;2022-10-12T15:48:39;15.80;99.90
47482;DHT22;33219;47.410;9.730;2022-10-12T15:51:14;15.80;99.90
47482;DHT22;33219;47.410;9.730;2022-10-12T15:53:40;15.70;99.90
47482;DHT22;33219;47.410;9.730;2022-10-12T15:56:14;15.70;99.90
47482;DHT22;33219;47.410;9.730;2022-10-12T15:58:42;15.60;99.90
47482;DHT22;33219;47.410;9.730;2022-10-12T16:01:15;15.60;99.90
47482;DHT22;33219;47.410;9.730;2022-10-12T16:03:44;15.60;99.90
47482;DHT22;33219;47.410;9.730;2022-10-12T16:06:12;15.50;99.90
47482;DHT22;33219;47.410;9.730;2022-10-12T16:08:40;15.40;99.90
47482;DHT22;33219;47.410;9.730;2022-10-12T16:11:12;15.40;99.90
47482;DHT22;33219;47.410;9.730;2022-10-12T16:13:41;15.40;99.90
47482;DHT22;33219;47.410;9.730;2022-10-12T16:16:10;15.30;99.90
47482;DHT22;33219;47.410;9.730;2022-10-12T16:18:38;15.30;99.90
47482;DHT22;33219;47.410;9.730;2022-10-12T16:21:06;15.20;99.90
47482;DHT22;33219;47.410;9.730;2022-10-12T16:23:35;15.20;99.90
47482;DHT22;33219;47.410;9.730;2022-10-12T16:26:06;15.10;99.90
47482;DHT22;33219;47.410;9.730;2022-10-12T16:28:34;15.10;99.90
47482;DHT22;33219;47.410;9.730;2022-10-12T16:31:02;15.10;99.90
47482;DHT22;33219;47.410;9.730;2022-10-12T16:33:30;15.10;99.90
47482;DHT22;33219;47.410;9.730;2022-10-12T16:35:58;15.00;99.90
47482;DHT22;33219;47.410;9.730;2022-10-12T16:38:26;15.00;99.90
47482;DHT22;33219;47.410;9.730;2022-10-12T16:40:53;14.90;99.90
47482;DHT22;33219;47.410;9.730;2022-10-12T16:43:21;14.90;99.90
47482;DHT22;33219;47.410;9.730;2022-10-12T16:45:55;14.90;99.90
47482;DHT22;33219;47.410;9.730;2022-10-12T16:48:23;14.90;99.90
47482;DHT22;33219;47.410;9.730;2022-10-12T16:50:50;14.80;99.90
47482;DHT22;33219;47.410;9.730;2022-10-12T16:53:18;14.80;99.90
47482;DHT22;33219;47.410;9.730;2022-10-12T16:55:46;14.80;99.90
47482;DHT22;33219;47.410;9.730;2022-10-12T16:58:14;14.80;99.90
47482;DHT22;33219;47.410;9.730;2022-10-12T17:00:42;14.80;99.90
47482;DHT22;33219;47.410;9.730;2022-10-12T17:03:09;14.80;99.90
47482;DHT22;33219;47.410;9.730;2022-10-12T17:05:40;14.80;99.90
47482;DHT22;33219;47.410;9.730;2022-10-12T17:08:07;14.70;99.90
47482;DHT22;33219;47.410;9.730;2022-10-12T17:10:40;14.70;99.90
47482;DHT22;33219;47.410;9.730;2022-10-12T17:13:07;14.70;99.90
47482;DHT22;33219;47.410;9.730;2022-10-12T17:15:40;14.70;99.90
47482;DHT22;33219;47.410;9.730;2022-10-12T17:18:06;14.70;99.90
47482;DHT22;33219;47.410;9.730;2022-10-12T17:20:34;14.70;99.90
47482;DHT22;33219;47.410;9.730;2022-10-12T17:23:02;14.70;99.90
47482;DHT22;33219;47.410;9.730;2022-10-12T17:25:30;14.70;99.90
47482;DHT22;33219;47.410;9.730;2022-10-12T17:27:58;14.70;99.90
47482;DHT22;33219;47.410;9.730;2022-10-12T17:30:25;14.70;99.90
47482;DHT22;33219;47.410;9.730;2022-10-12T17:32:53;14.70;99.90
47482;DHT22;33219;47.410;9.730;2022-10-12T17:35:21;14.70;99.90
47482;DHT22;33219;47.410;9.730;2022-10-12T17:37:49;14.70;99.90
47482;DHT22;33219;47.410;9.730;2022-10-12T17:40:17;14.70;99.90
47482;DHT22;33219;47.410;9.730;2022-10-12T17:42:44;14.70;99.90
47482;DHT22;33219;47.410;9.730;2022-10-12T17:45:12;14.70;99.90
47482;DHT22;33219;47.410;9.730;2022-10-12T17:47:40;14.70;99.90
47482;DHT22;33219;47.410;9.730;2022-10-12T17:50:08;14.70;99.90
47482;DHT22;33219;47.410;9.730;2022-10-12T17:52:38;14.70;99.90
47482;DHT22;33219;47.410;9.730;2022-10-12T17:55:06;14.70;99.90
47482;DHT22;33219;47.410;9.730;2022-10-12T17:57:34;14.80;99.90
47482;DHT22;33219;47.410;9.730;2022-10-12T18:00:02;14.70;99.90
47482;DHT22;33219;47.410;9.730;2022-10-12T18:02:34;14.70;99.90
47482;DHT22;33219;47.410;9.730;2022-10-12T18:05:01;14.70;99.90
47482;DHT22;33219;47.410;9.730;2022-10-12T18:07:34;14.70;99.90
47482;DHT22;33219;47.410;9.730;2022-10-12T18:09:59;14.70;99.90
47482;DHT22;33219;47.410;9.730;2022-10-12T18:12:26;14.70;99.90
47482;DHT22;33219;47.410;9.730;2022-10-12T18:14:54;14.70;99.90
47482;DHT22;33219;47.410;9.730;2022-10-12T18:17:22;14.70;99.90
47482;DHT22;33219;47.410;9.730;2022-10-12T18:19:49;14.70;99.90
47482;DHT22;33219;47.410;9.730;2022-10-12T18:22:17;14.70;99.90
47482;DHT22;33219;47.410;9.730;2022-10-12T18:24:45;14.70;99.90
47482;DHT22;33219;47.410;9.730;2022-10-12T18:27:14;14.70;99.90
47482;DHT22;33219;47.410;9.730;2022-10-12T18:29:42;14.70;99.90
47482;DHT22;33219;47.410;9.730;2022-10-12T18:32:10;14.70;99.90
47482;DHT22;33219;47.410;9.730;2022-10-12T18:34:38;14.60;99.90
47482;DHT22;33219;47.410;9.730;2022-10-12T18:37:09;14.60;99.90
47482;DHT22;33219;47.410;9.730;2022-10-12T18:39:39;14.60;99.90
47482;DHT22;33219;47.410;9.730;2022-10-12T18:42:08;14.50;99.90
47482;DHT22;33219;47.410;9.730;2022-10-12T18:44:36;14.50;99.90
47482;DHT22;33219;47.410;9.730;2022-10-12T18:47:05;14.50;99.90
47482;DHT22;33219;47.410;9.730;2022-10-12T18:49:33;14.40;99.90
47482;DHT22;33219;47.410;9.730;2022-10-12T18:52:01;14.40;99.90
47482;DHT22;33219;47.410;9.730;2022-10-12T18:54:29;14.30;99.90
47482;DHT22;33219;47.410;9.730;2022-10-12T18:56:57;14.30;99.90
47482;DHT22;33219;47.410;9.730;2022-10-12T18:59:25;14.20;99.90
47482;DHT22;33219;47.410;9.730;2022-10-12T19:01:53;14.20;99.90
47482;DHT22;33219;47.410;9.730;2022-10-12T19:04:21;14.20;99.90
47482;DHT22;33219;47.410;9.730;2022-10-12T19:06:49;14.20;99.90
47482;DHT22;33219;47.410;9.730;2022-10-12T19:09:17;14.20;99.90
47482;DHT22;33219;47.410;9.730;2022-10-12T19:11:45;14.20;99.90
47482;DHT22;33219;47.410;9.730;2022-10-12T19:14:14;14.20;99.90
47482;DHT22;33219;47.410;9.730;2022-10-12T19:16:42;14.30;99.90
47482;DHT22;33219;47.410;9.730;2022-10-12T19:19:14;14.30;99.90
47482;DHT22;33219;47.410;9.730;2022-10-12T19:21:43;14.30;99.90
47482;DHT22;33219;47.410;9.730;2022-10-12T19:24:12;14.30;99.90
47482;DHT22;33219;47.410;9.730;2022-10-12T19:26:41;14.40;99.90
47482;DHT22;33219;47.410;9.730;2022-10-12T19:29:09;14.40;99.90
47482;DHT22;33219;47.410;9.730;2022-10-12T19:31:40;14.40;99.90
47482;DHT22;33219;47.410;9.730;2022-10-12T19:34:09;14.40;99.90
47482;DHT22;33219;47.410;9.730;2022-10-12T19:36:38;14.40;99.90
47482;DHT22;33219;47.410;9.730;2022-10-12T19:39:10;14.40;99.90
47482;DHT22;33219;47.410;9.730;2022-10-12T19:41:37;14.40;99.90
47482;DHT22;33219;47.410;9.730;2022-10-12T19:44:05;14.40;99.90
47482;DHT22;33219;47.410;9.730;2022-10-12T19:46:33;14.40;99.90
47482;DHT22;33219;47.410;9.730;2022-10-12T19:49:01;14.40;99.90
47482;DHT22;33219;47.410;9.730;2022-10-12T19:51:29;14.40;99.90
47482;DHT22;33219;47.410;9.730;2022-10-12T19:53:59;14.40;99.90
47482;DHT22;33219;47.410;9.730;2022-10-12T19:56:30;14.40;99.90
47482;DHT22;33219;47.410;9.730;2022-10-12T19:58:58;14.40;99.90
47482;DHT22;33219;47.410;9.730;2022-10-12T20:01:32;14.40;99.90
47482;DHT22;33219;47.410;9.730;2022-10-12T20:04:04;14.40;99.90
47482;DHT22;33219;47.410;9.730;2022-10-12T20:06:35;14.40;99.90